createdAt,value
2022-12-31T00:00:55.624Z,569.15
2022-12-31T00:02:59.220Z,538.40
2022-12-31T00:05:02.619Z,538.03
2022-12-31T00:07:05.952Z,538.58
2022-12-31T00:09:09.657Z,545.28
2022-12-31T00:11:13.632Z,540.42
2022-12-31T00:13:17.220Z,548.75
2022-12-31T00:15:20.650Z,546.22
2022-12-31T00:17:25.402Z,546.35
2022-12-31T00:19:28.759Z,549.28
2022-12-31T00:21:33.788Z,541.13
2022-12-31T00:23:37.758Z,544.35
2022-12-31T00:25:41.208Z,552.40
2022-12-31T00:27:44.654Z,545.33
2022-12-31T00:29:48.021Z,547.08
2022-12-31T00:31:51.397Z,542.22
2022-12-31T00:33:58.035Z,554.88
2022-12-31T00:36:09.680Z,541.58
2022-12-31T00:38:13.016Z,547.80
2022-12-31T00:40:16.854Z,547.85
2022-12-31T00:42:20.199Z,538.70
2022-12-31T00:44:23.567Z,545.80
2022-12-31T00:46:27.287Z,541.03
2022-12-31T00:48:31.041Z,544.25
2022-12-31T00:50:35.708Z,542.10
2022-12-31T00:52:39.046Z,544.75
2022-12-31T00:54:42.402Z,536.17
2022-12-31T00:56:45.715Z,547.13
2022-12-31T00:58:49.510Z,551.40
2022-12-31T01:00:52.893Z,539.78
2022-12-31T01:02:56.364Z,543.03
2022-12-31T01:04:59.703Z,537.38
2022-12-31T01:07:04.635Z,540.53
2022-12-31T01:09:08.772Z,542.88
2022-12-31T01:11:22.295Z,540.60
2022-12-31T01:13:26.045Z,545.22
2022-12-31T01:15:29.578Z,555.00
2022-12-31T01:17:32.918Z,536.50
2022-12-31T01:19:36.365Z,552.42
2022-12-31T01:21:41.236Z,545.85
2022-12-31T01:23:46.149Z,545.35
2022-12-31T01:25:49.833Z,552.95
2022-12-31T01:27:53.150Z,542.78
2022-12-31T01:29:56.465Z,539.08
2022-12-31T01:31:59.836Z,549.38
2022-12-31T01:34:03.583Z,544.55
2022-12-31T01:36:09.861Z,542.67
2022-12-31T01:38:13.173Z,547.05
2022-12-31T01:40:18.454Z,549.92
2022-12-31T01:42:21.872Z,551.90
2022-12-31T01:44:50.067Z,550.17
2022-12-31T01:46:56.193Z,546.08
2022-12-31T01:49:02.839Z,543.97
2022-12-31T01:51:08.419Z,556.35
2022-12-31T01:53:12.845Z,552.55
2022-12-31T01:55:21.342Z,553.90
2022-12-31T01:57:27.462Z,555.60
2022-12-31T01:59:31.979Z,555.45
2022-12-31T02:01:38.974Z,557.83
2022-12-31T02:03:42.638Z,556.58
2022-12-31T02:05:50.870Z,562.45
2022-12-31T02:07:55.806Z,575.63
2022-12-31T02:10:00.625Z,563.70
2022-12-31T02:12:05.983Z,556.05
2022-12-31T02:14:14.365Z,573.13
2022-12-31T02:16:22.798Z,573.08
2022-12-31T02:18:35.145Z,563.67
2022-12-31T02:21:05.707Z,574.28
2022-12-31T02:23:47.285Z,565.10
2022-12-31T02:26:05.930Z,559.28
2022-12-31T02:28:22.667Z,558.70
2022-12-31T02:30:29.865Z,570.03
2022-12-31T02:32:39.957Z,568.03
2022-12-31T02:34:48.739Z,572.38
2022-12-31T02:36:56.074Z,556.47
2022-12-31T02:39:00.252Z,560.63
2022-12-31T02:41:03.588Z,558.65
2022-12-31T02:43:07.265Z,554.10
2022-12-31T02:45:13.134Z,571.97
2022-12-31T02:47:31.798Z,559.67
2022-12-31T02:49:45.063Z,563.88
2022-12-31T02:52:00.166Z,567.25
2022-12-31T02:54:19.643Z,575.00
2022-12-31T02:56:28.139Z,573.83
2022-12-31T02:58:56.189Z,575.47
2022-12-31T03:01:18.445Z,562.83
2022-12-31T03:03:24.006Z,567.25
2022-12-31T03:05:30.441Z,569.45
2022-12-31T03:07:34.300Z,570.83
2022-12-31T03:09:38.445Z,568.72
2022-12-31T03:11:59.948Z,570.67
2022-12-31T03:14:03.275Z,577.35
2022-12-31T03:16:16.580Z,566.67
2022-12-31T03:18:41.889Z,577.40
2022-12-31T03:21:12.260Z,566.40
2022-12-31T03:23:19.629Z,563.88
2022-12-31T03:25:34.493Z,571.65
2022-12-31T03:27:36.856Z,566.85
2022-12-31T03:29:40.163Z,578.10
2022-12-31T03:31:43.525Z,566.53
2022-12-31T03:33:46.896Z,561.70
2022-12-31T03:35:52.535Z,572.25
2022-12-31T03:37:56.408Z,575.90
2022-12-31T03:39:59.921Z,563.45
2022-12-31T03:42:03.416Z,560.03
2022-12-31T03:44:06.866Z,560.70
2022-12-31T03:46:10.229Z,582.10
2022-12-31T03:48:14.281Z,573.60
2022-12-31T03:50:19.312Z,589.53
2022-12-31T03:52:24.373Z,567.03
2022-12-31T03:54:27.757Z,561.40
2022-12-31T03:56:31.927Z,573.30
2022-12-31T03:58:35.531Z,563.97
2022-12-31T04:00:39.049Z,568.88
2022-12-31T04:02:43.328Z,571.25
2022-12-31T04:04:46.752Z,580.65
2022-12-31T04:06:50.145Z,562.05
2022-12-31T04:08:54.822Z,553.80
2022-12-31T04:10:58.293Z,563.22
2022-12-31T04:13:04.502Z,563.15
2022-12-31T04:15:09.556Z,561.60
2022-12-31T04:17:12.892Z,576.83
2022-12-31T04:19:16.225Z,566.95
2022-12-31T04:21:21.037Z,568.55
2022-12-31T04:23:24.364Z,568.05
2022-12-31T04:25:29.123Z,569.33
2022-12-31T04:27:32.468Z,561.97
2022-12-31T04:29:35.854Z,566.10
2022-12-31T04:31:39.225Z,566.85
2022-12-31T04:33:42.596Z,575.92
2022-12-31T04:35:46.232Z,562.28
2022-12-31T04:37:49.601Z,562.10
2022-12-31T04:39:52.877Z,558.67
2022-12-31T04:41:57.623Z,560.95
2022-12-31T04:44:01.124Z,556.47
2022-12-31T04:46:04.675Z,556.92
2022-12-31T04:48:09.035Z,564.28
2022-12-31T04:50:12.361Z,561.22
2022-12-31T04:52:18.705Z,575.65
2022-12-31T04:54:22.326Z,574.20
2022-12-31T04:56:25.905Z,565.05
2022-12-31T04:58:31.117Z,563.95
2022-12-31T05:00:34.509Z,580.17
2022-12-31T05:02:38.277Z,563.13
2022-12-31T05:04:41.753Z,568.65
2022-12-31T05:06:45.041Z,577.63
2022-12-31T05:08:49.355Z,572.47
2022-12-31T05:10:52.721Z,583.25
2022-12-31T05:12:56.198Z,563.88
2022-12-31T05:15:00.894Z,562.10
2022-12-31T05:17:04.352Z,570.70
2022-12-31T05:19:09.538Z,571.13
2022-12-31T05:21:19.308Z,570.97
2022-12-31T05:23:22.951Z,577.60
2022-12-31T05:25:26.354Z,573.08
2022-12-31T05:27:31.534Z,580.03
2022-12-31T05:29:35.279Z,573.90
2022-12-31T05:31:39.973Z,572.33
2022-12-31T05:33:43.285Z,570.38
2022-12-31T05:35:46.994Z,565.78
2022-12-31T05:37:50.437Z,569.50
2022-12-31T05:39:53.750Z,576.55
2022-12-31T05:41:57.325Z,565.25
2022-12-31T05:44:00.629Z,579.05
2022-12-31T05:46:05.367Z,577.25
2022-12-31T05:48:10.245Z,569.40
2022-12-31T05:50:16.330Z,571.90
2022-12-31T05:52:19.863Z,567.97
2022-12-31T05:54:23.175Z,565.25
2022-12-31T05:56:26.587Z,579.72
2022-12-31T05:58:29.867Z,574.90
2022-12-31T06:00:34.433Z,568.13
2022-12-31T06:02:37.908Z,592.45
2022-12-31T06:04:42.675Z,567.00
2022-12-31T06:06:46.035Z,575.50
2022-12-31T06:08:50.643Z,567.05
2022-12-31T06:10:53.938Z,576.92
2022-12-31T06:12:57.261Z,573.25
2022-12-31T06:15:00.693Z,579.28
2022-12-31T06:17:06.270Z,587.25
2022-12-31T06:19:10.638Z,572.40
2022-12-31T06:21:15.837Z,591.78
2022-12-31T06:23:19.224Z,573.20
2022-12-31T06:25:22.527Z,580.20
2022-12-31T06:27:25.926Z,572.85
2022-12-31T06:29:29.724Z,581.90
2022-12-31T06:31:33.048Z,573.80
2022-12-31T06:33:36.820Z,585.80
2022-12-31T06:35:40.168Z,593.67
2022-12-31T06:37:44.847Z,590.75
2022-12-31T06:39:48.170Z,581.88
2022-12-31T06:41:51.545Z,577.05
2022-12-31T06:43:54.937Z,575.45
2022-12-31T06:46:01.455Z,576.40
2022-12-31T06:48:05.782Z,590.03
2022-12-31T06:50:10.101Z,563.67
2022-12-31T06:52:13.656Z,571.33
2022-12-31T06:54:18.328Z,570.70
2022-12-31T06:56:31.211Z,572.15
2022-12-31T06:58:37.142Z,577.58
2022-12-31T07:00:44.284Z,577.45
2022-12-31T07:03:11.414Z,590.08
2022-12-31T07:05:37.283Z,572.83
2022-12-31T07:07:50.771Z,586.33
2022-12-31T07:10:02.300Z,568.55
2022-12-31T07:12:17.216Z,569.55
2022-12-31T07:14:32.757Z,572.92
2022-12-31T07:16:45.521Z,570.70
2022-12-31T07:18:55.320Z,571.50
2022-12-31T07:20:59.168Z,567.15
2022-12-31T07:23:03.056Z,566.65
2022-12-31T07:25:09.334Z,568.65
2022-12-31T07:27:28.839Z,574.45
2022-12-31T07:29:43.750Z,574.45
2022-12-31T07:31:58.596Z,566.22
2022-12-31T07:34:08.419Z,572.45
2022-12-31T07:36:24.847Z,573.25
2022-12-31T07:38:36.491Z,568.92
2022-12-31T07:40:53.509Z,581.45
2022-12-31T07:43:08.342Z,572.08
2022-12-31T07:45:19.347Z,579.95
2022-12-31T07:47:24.625Z,567.03
2022-12-31T07:49:30.389Z,583.97
2022-12-31T07:51:34.266Z,581.67
2022-12-31T07:53:37.739Z,568.15
2022-12-31T07:55:42.492Z,582.50
2022-12-31T07:57:56.504Z,574.50
2022-12-31T08:00:07.183Z,570.08
2022-12-31T08:02:25.931Z,569.70
2022-12-31T08:04:34.245Z,574.67
2022-12-31T08:06:47.491Z,571.15
2022-12-31T08:08:58.572Z,568.90
2022-12-31T08:11:13.691Z,572.75
2022-12-31T08:13:18.346Z,575.67
2022-12-31T08:15:28.500Z,577.50
2022-12-31T08:17:34.025Z,567.00
2022-12-31T08:19:37.847Z,571.28
2022-12-31T08:21:49.784Z,574.90
2022-12-31T08:24:04.563Z,576.38
2022-12-31T08:26:22.486Z,577.13
2022-12-31T08:28:42.177Z,572.88
2022-12-31T08:30:55.734Z,566.67
2022-12-31T08:33:09.606Z,571.75
2022-12-31T08:35:25.625Z,569.80
2022-12-31T08:37:37.669Z,576.38
2022-12-31T08:39:57.824Z,575.60
2022-12-31T08:42:05.972Z,571.85
2022-12-31T08:44:19.138Z,571.03
2022-12-31T08:46:29.080Z,575.38
2022-12-31T08:48:39.629Z,588.20
2022-12-31T08:50:43.476Z,569.85
2022-12-31T08:52:48.762Z,584.65
2022-12-31T08:54:53.234Z,581.72
2022-12-31T08:57:05.363Z,575.58
2022-12-31T08:59:21.710Z,575.55
2022-12-31T09:01:33.878Z,575.13
2022-12-31T09:03:52.108Z,574.03
2022-12-31T09:06:03.661Z,575.30
2022-12-31T09:08:17.390Z,575.47
2022-12-31T09:10:25.740Z,573.85
2022-12-31T09:12:33.917Z,579.35
2022-12-31T09:14:48.207Z,583.10
2022-12-31T09:17:01.656Z,576.22
2022-12-31T09:19:05.077Z,578.10
2022-12-31T09:21:10.764Z,572.15
2022-12-31T09:23:14.521Z,591.55
2022-12-31T09:25:20.320Z,581.83
2022-12-31T09:27:28.656Z,578.22
2022-12-31T09:29:44.766Z,587.15
2022-12-31T09:31:57.275Z,580.42
2022-12-31T09:34:04.624Z,577.00
2022-12-31T09:36:12.460Z,583.17
2022-12-31T09:38:20.685Z,586.60
2022-12-31T09:40:49.005Z,582.42
2022-12-31T09:43:10.268Z,577.58
2022-12-31T09:45:41.300Z,584.25
2022-12-31T09:48:13.361Z,583.67
2022-12-31T09:50:40.896Z,590.67
2022-12-31T09:53:02.661Z,576.67
2022-12-31T09:55:38.338Z,576.38
2022-12-31T09:57:55.766Z,580.47
2022-12-31T10:00:04.631Z,580.50
2022-12-31T10:02:28.258Z,583.28
2022-12-31T10:05:01.869Z,579.88
2022-12-31T10:07:31.162Z,577.33
2022-12-31T10:10:07.487Z,584.67
2022-12-31T10:12:36.522Z,582.40
2022-12-31T10:14:59.743Z,584.60
2022-12-31T10:17:15.406Z,572.25
2022-12-31T10:20:09.202Z,586.90
2022-12-31T10:22:32.085Z,578.35
2022-12-31T10:24:46.795Z,582.42
2022-12-31T10:27:14.118Z,587.72
2022-12-31T10:29:26.427Z,575.50
2022-12-31T10:31:40.566Z,582.05
2022-12-31T10:33:52.977Z,577.30
2022-12-31T10:36:08.733Z,580.67
2022-12-31T10:38:28.114Z,581.88
2022-12-31T10:40:52.325Z,584.55
2022-12-31T10:43:27.256Z,579.80
2022-12-31T10:46:00.912Z,587.25
2022-12-31T10:48:39.503Z,582.33
2022-12-31T10:50:57.041Z,591.13
2022-12-31T10:53:29.261Z,583.80
2022-12-31T10:56:01.807Z,595.80
2022-12-31T10:58:33.644Z,592.95
2022-12-31T11:00:45.273Z,587.92
2022-12-31T11:03:28.974Z,579.15
2022-12-31T11:06:19.617Z,576.80
2022-12-31T11:08:42.873Z,582.53
2022-12-31T11:11:20.596Z,589.13
2022-12-31T11:14:01.845Z,582.15
2022-12-31T11:16:21.288Z,572.22
2022-12-31T11:18:34.351Z,578.85
2022-12-31T11:21:06.527Z,595.03
2022-12-31T11:23:25.424Z,575.72
2022-12-31T11:25:41.558Z,581.63
2022-12-31T11:27:59.370Z,573.28
2022-12-31T11:30:12.394Z,580.08
2022-12-31T11:32:31.781Z,581.38
2022-12-31T11:35:04.354Z,594.05
2022-12-31T11:37:28.612Z,590.08
2022-12-31T11:39:43.707Z,604.28
2022-12-31T11:41:53.152Z,580.53
2022-12-31T11:44:04.536Z,583.70
2022-12-31T11:46:27.736Z,585.10
2022-12-31T11:48:37.817Z,582.65
2022-12-31T11:50:53.705Z,595.15
2022-12-31T11:53:24.274Z,590.30
2022-12-31T11:55:36.033Z,596.63
2022-12-31T11:57:41.489Z,591.25
2022-12-31T11:59:44.966Z,601.15
2022-12-31T12:01:56.933Z,588.03
2022-12-31T12:04:00.471Z,587.63
2022-12-31T12:06:05.853Z,597.75
2022-12-31T12:08:09.217Z,593.00
2022-12-31T12:10:24.014Z,593.53
2022-12-31T12:12:27.443Z,589.83
2022-12-31T12:14:35.270Z,583.10
2022-12-31T12:16:38.777Z,591.17
2022-12-31T12:18:46.588Z,592.88
2022-12-31T12:20:50.068Z,593.05
2022-12-31T12:22:57.231Z,587.05
2022-12-31T12:25:05.978Z,589.72
2022-12-31T12:27:22.473Z,588.72
2022-12-31T12:29:30.150Z,588.65
2022-12-31T12:31:34.177Z,590.78
2022-12-31T12:33:44.615Z,588.58
2022-12-31T12:35:48.615Z,598.67
2022-12-31T12:38:01.738Z,588.38
2022-12-31T12:40:09.344Z,596.00
2022-12-31T12:42:15.547Z,600.20
2022-12-31T12:44:18.879Z,595.20
2022-12-31T12:46:28.577Z,598.93
2022-12-31T12:48:38.319Z,599.20
2022-12-31T12:50:46.517Z,596.42
2022-12-31T12:53:08.740Z,595.45
2022-12-31T12:55:20.700Z,591.92
2022-12-31T12:57:30.129Z,593.05
2022-12-31T12:59:58.406Z,586.78
2022-12-31T13:02:19.335Z,592.22
2022-12-31T13:04:48.418Z,584.00
2022-12-31T13:07:08.744Z,582.90
2022-12-31T13:09:27.569Z,581.70
2022-12-31T13:11:44.073Z,588.85
2022-12-31T13:13:55.784Z,589.80
2022-12-31T13:16:05.684Z,586.90
2022-12-31T13:18:17.036Z,585.38
2022-12-31T13:20:30.754Z,589.45
2022-12-31T13:22:39.251Z,593.92
2022-12-31T13:24:55.134Z,574.95
2022-12-31T13:27:05.527Z,576.95
2022-12-31T13:29:16.409Z,571.30
2022-12-31T13:31:27.220Z,572.75
2022-12-31T13:33:35.308Z,568.60
2022-12-31T13:35:46.113Z,581.45
2022-12-31T13:37:52.227Z,583.75
2022-12-31T13:40:02.311Z,565.55
2022-12-31T13:42:14.043Z,570.83
2022-12-31T13:44:25.531Z,580.58
2022-12-31T13:46:42.585Z,574.83
2022-12-31T13:48:51.803Z,574.85
2022-12-31T13:51:02.543Z,569.08
2022-12-31T13:53:15.088Z,573.55
2022-12-31T13:55:25.090Z,584.78
2022-12-31T13:57:40.998Z,574.08
2022-12-31T13:59:49.508Z,573.10
2022-12-31T14:01:58.083Z,560.17
2022-12-31T14:04:08.700Z,573.28
2022-12-31T14:06:22.211Z,566.33
2022-12-31T14:08:25.773Z,569.75
2022-12-31T14:10:42.603Z,578.55
2022-12-31T14:12:54.755Z,575.58
2022-12-31T14:15:08.739Z,564.72
2022-12-31T14:17:20.837Z,565.17
2022-12-31T14:19:45.156Z,568.70
2022-12-31T14:21:54.693Z,562.67
2022-12-31T14:24:07.725Z,571.47
2022-12-31T14:26:21.479Z,566.20
2022-12-31T14:28:29.107Z,569.45
2022-12-31T14:30:38.096Z,565.67
2022-12-31T14:33:11.012Z,581.20
2022-12-31T14:35:37.213Z,569.90
2022-12-31T14:37:49.946Z,573.58
2022-12-31T14:40:02.508Z,563.33
2022-12-31T14:42:18.475Z,564.53
2022-12-31T14:44:35.023Z,585.20
2022-12-31T14:46:46.037Z,565.63
2022-12-31T14:48:58.934Z,572.72
2022-12-31T14:51:05.130Z,565.42
2022-12-31T14:53:18.478Z,565.72
2022-12-31T14:55:26.127Z,562.65
2022-12-31T14:58:01.412Z,567.78
2022-12-31T15:00:26.437Z,565.17
2022-12-31T15:02:32.611Z,575.65
2022-12-31T15:04:45.720Z,574.22
2022-12-31T15:06:59.359Z,572.47
2022-12-31T15:09:14.509Z,569.53
2022-12-31T15:11:28.196Z,571.97
2022-12-31T15:13:47.456Z,572.13
2022-12-31T15:16:20.210Z,579.53
2022-12-31T15:18:36.143Z,578.53
2022-12-31T15:20:50.543Z,572.83
2022-12-31T15:22:55.125Z,568.78
2022-12-31T15:25:00.323Z,572.28
2022-12-31T15:27:06.503Z,580.80
2022-12-31T15:29:32.110Z,566.50
2022-12-31T15:31:37.413Z,580.25
2022-12-31T15:33:42.746Z,573.10
2022-12-31T15:35:50.353Z,569.75
2022-12-31T15:38:01.187Z,572.15
2022-12-31T15:40:20.201Z,564.08
2022-12-31T15:42:38.319Z,571.03
2022-12-31T15:44:49.999Z,565.90
2022-12-31T15:46:58.808Z,568.45
2022-12-31T15:49:10.287Z,570.55
2022-12-31T15:51:21.017Z,571.03
2022-12-31T15:53:29.750Z,569.00
2022-12-31T15:55:38.608Z,560.67
2022-12-31T15:57:43.264Z,569.08
2022-12-31T15:59:48.552Z,576.85
2022-12-31T16:01:51.987Z,577.13
2022-12-31T16:03:58.915Z,562.90
2022-12-31T16:06:04.665Z,566.38
2022-12-31T16:08:08.099Z,580.40
2022-12-31T16:10:19.717Z,564.38
2022-12-31T16:12:32.958Z,574.45
2022-12-31T16:14:40.381Z,586.53
2022-12-31T16:16:54.192Z,573.53
2022-12-31T16:18:58.568Z,576.58
2022-12-31T16:21:01.965Z,576.33
2022-12-31T16:23:21.599Z,576.17
2022-12-31T16:25:33.673Z,572.03
2022-12-31T16:27:37.311Z,573.38
2022-12-31T16:29:47.263Z,584.58
2022-12-31T16:31:55.938Z,565.75
2022-12-31T16:34:07.646Z,581.10
2022-12-31T16:36:21.390Z,563.47
2022-12-31T16:38:33.190Z,575.33
2022-12-31T16:40:36.693Z,573.72
2022-12-31T16:42:44.358Z,583.85
2022-12-31T16:44:48.708Z,564.75
2022-12-31T16:46:52.096Z,573.22
2022-12-31T16:49:00.203Z,571.70
2022-12-31T16:51:04.625Z,573.97
2022-12-31T16:53:09.125Z,573.42
2022-12-31T16:55:18.369Z,565.97
2022-12-31T16:57:24.949Z,567.70
2022-12-31T16:59:35.348Z,567.67
2022-12-31T17:01:39.737Z,575.75
2022-12-31T17:03:46.307Z,569.20
2022-12-31T17:06:01.612Z,567.35
2022-12-31T17:08:24.005Z,572.47
2022-12-31T17:10:34.840Z,578.90
2022-12-31T17:13:25.007Z,565.30
2022-12-31T17:15:17.435Z,585.92
2022-12-31T17:17:24.698Z,576.00
2022-12-31T17:19:41.326Z,579.22
2022-12-31T17:21:48.567Z,575.63
2022-12-31T17:23:56.521Z,580.13
2022-12-31T17:26:02.319Z,574.90
2022-12-31T17:28:08.835Z,578.42
2022-12-31T17:30:22.099Z,569.58
2022-12-31T17:32:31.379Z,571.40
2022-12-31T17:34:37.753Z,571.47
2022-12-31T17:36:42.425Z,566.40
2022-12-31T17:38:47.285Z,568.75
2022-12-31T17:40:53.315Z,568.30
2022-12-31T17:42:57.404Z,572.92
2022-12-31T17:45:03.124Z,575.45
2022-12-31T17:47:09.049Z,569.90
2022-12-31T17:49:14.033Z,572.33
2022-12-31T17:51:17.442Z,575.53
2022-12-31T17:53:28.533Z,567.45
2022-12-31T17:55:33.976Z,565.58
2022-12-31T17:57:37.865Z,567.88
2022-12-31T17:59:41.247Z,570.47
2022-12-31T18:01:45.163Z,557.88
2022-12-31T18:03:48.874Z,565.38
2022-12-31T18:05:52.299Z,569.58
2022-12-31T18:07:55.677Z,575.88
2022-12-31T18:09:58.969Z,575.38
2022-12-31T18:12:05.081Z,576.08
2022-12-31T18:14:08.645Z,564.03
2022-12-31T18:16:12.118Z,579.65
2022-12-31T18:18:24.791Z,566.88
2022-12-31T18:20:29.003Z,571.97
2022-12-31T18:22:32.559Z,574.33
2022-12-31T18:24:36.223Z,579.03
2022-12-31T18:26:42.236Z,594.20
2022-12-31T18:28:47.599Z,581.90
2022-12-31T18:30:51.265Z,565.97
2022-12-31T18:32:54.962Z,571.55
2022-12-31T18:34:58.287Z,571.50
2022-12-31T18:37:01.716Z,580.63
2022-12-31T18:39:05.315Z,572.28
2022-12-31T18:41:14.148Z,582.00
2022-12-31T18:43:19.097Z,562.60
2022-12-31T18:45:24.780Z,585.30
2022-12-31T18:47:31.415Z,581.30
2022-12-31T18:49:40.852Z,584.35
2022-12-31T18:51:44.171Z,588.42
2022-12-31T18:53:47.871Z,585.50
2022-12-31T18:55:52.876Z,583.85
2022-12-31T18:57:56.251Z,568.45
2022-12-31T18:59:59.571Z,577.95
2022-12-31T19:02:04.654Z,576.20
2022-12-31T19:04:14.035Z,575.30
2022-12-31T19:06:17.372Z,572.83
2022-12-31T19:08:22.794Z,569.67
2022-12-31T19:10:27.202Z,573.22
2022-12-31T19:12:30.544Z,575.53
2022-12-31T19:14:33.894Z,599.58
2022-12-31T19:16:37.198Z,580.20
2022-12-31T19:18:42.391Z,569.65
2022-12-31T19:20:46.191Z,586.25
2022-12-31T19:22:49.595Z,566.22
2022-12-31T19:24:52.877Z,570.65
2022-12-31T19:26:56.218Z,581.65
2022-12-31T19:28:59.538Z,571.25
2022-12-31T19:31:02.845Z,569.97
2022-12-31T19:33:06.263Z,569.38
2022-12-31T19:35:13.214Z,586.85
2022-12-31T19:37:16.655Z,576.08
2022-12-31T19:39:22.374Z,566.72
2022-12-31T19:41:25.759Z,581.05
2022-12-31T19:43:29.185Z,566.60
2022-12-31T19:45:32.970Z,584.28
2022-12-31T19:47:42.445Z,595.33
2022-12-31T19:49:45.950Z,568.28
2022-12-31T19:51:50.905Z,577.03
2022-12-31T19:53:54.207Z,577.03
2022-12-31T19:55:57.509Z,583.72
2022-12-31T19:58:00.805Z,595.67
2022-12-31T20:00:05.016Z,592.03
2022-12-31T20:02:17.179Z,575.67
2022-12-31T20:04:21.638Z,603.22
2022-12-31T20:06:24.959Z,591.75
2022-12-31T20:08:29.702Z,583.63
2022-12-31T20:10:33.046Z,581.20
2022-12-31T20:12:42.185Z,596.00
2022-12-31T20:14:47.517Z,570.75
2022-12-31T20:16:52.467Z,584.25
2022-12-31T20:18:56.085Z,577.55
2022-12-31T20:20:59.481Z,572.30
2022-12-31T20:23:02.824Z,572.40
2022-12-31T20:25:08.287Z,578.00
2022-12-31T20:27:18.250Z,578.83
2022-12-31T20:29:21.978Z,568.78
2022-12-31T20:31:26.494Z,582.40
2022-12-31T20:33:31.756Z,574.42
2022-12-31T20:35:35.059Z,589.65
2022-12-31T20:37:38.423Z,568.90
2022-12-31T20:39:42.630Z,571.53
2022-12-31T20:41:47.449Z,579.67
2022-12-31T20:43:51.871Z,573.15
2022-12-31T20:45:55.384Z,578.95
2022-12-31T20:47:58.916Z,575.60
2022-12-31T20:50:11.717Z,576.17
2022-12-31T20:52:15.698Z,581.20
2022-12-31T20:54:18.990Z,571.63
2022-12-31T20:56:23.269Z,579.70
2022-12-31T20:58:28.003Z,576.42
2022-12-31T21:00:31.425Z,579.50
2022-12-31T21:02:42.253Z,583.08
2022-12-31T21:04:46.925Z,573.85
2022-12-31T21:06:52.200Z,574.50
2022-12-31T21:08:56.127Z,575.55
2022-12-31T21:10:59.577Z,596.08
2022-12-31T21:13:01.979Z,585.08
2022-12-31T21:15:07.996Z,586.63
2022-12-31T21:17:11.383Z,583.08
2022-12-31T21:19:14.749Z,582.25
2022-12-31T21:21:18.429Z,598.38
2022-12-31T21:23:21.713Z,590.70
2022-12-31T21:25:25.024Z,588.47
2022-12-31T21:27:29.025Z,603.28
2022-12-31T21:29:34.702Z,592.95
2022-12-31T21:31:42.817Z,592.13
2022-12-31T21:33:46.448Z,577.25
2022-12-31T21:35:53.889Z,587.55
2022-12-31T21:38:01.251Z,578.80
2022-12-31T21:40:06.091Z,579.05
2022-12-31T21:42:09.570Z,566.35
2022-12-31T21:44:12.987Z,578.60
2022-12-31T21:46:16.575Z,572.40
2022-12-31T21:48:22.088Z,575.92
2022-12-31T21:50:25.470Z,582.60
2022-12-31T21:52:30.520Z,571.00
2022-12-31T21:54:50.636Z,576.67
2022-12-31T21:56:53.929Z,566.30
2022-12-31T21:59:17.137Z,571.47
2022-12-31T22:01:39.989Z,572.85
2022-12-31T22:03:44.864Z,568.97
2022-12-31T22:05:50.544Z,569.50
2022-12-31T22:07:53.895Z,571.25
2022-12-31T22:09:57.452Z,574.88
2022-12-31T22:12:00.774Z,569.03
2022-12-31T22:14:04.291Z,575.47
2022-12-31T22:16:08.709Z,566.70
2022-12-31T22:18:12.700Z,574.75
2022-12-31T22:20:27.035Z,571.60
2022-12-31T22:22:31.074Z,565.80
2022-12-31T22:24:34.534Z,571.22
2022-12-31T22:26:43.054Z,572.13
2022-12-31T22:28:48.580Z,569.60
2022-12-31T22:30:52.190Z,575.85
2022-12-31T22:32:55.683Z,581.97
2022-12-31T22:34:59.004Z,559.85
2022-12-31T22:37:20.329Z,576.22
2022-12-31T22:39:43.483Z,567.15
2022-12-31T22:41:48.032Z,562.88
2022-12-31T22:43:57.221Z,567.38
2022-12-31T22:46:11.741Z,568.03
2022-12-31T22:48:15.214Z,581.97
2022-12-31T22:50:19.056Z,582.40
2022-12-31T22:52:23.979Z,572.65
2022-12-31T22:54:27.274Z,569.13
2022-12-31T22:56:30.565Z,570.72
2022-12-31T22:58:34.066Z,568.85
2022-12-31T23:00:40.397Z,574.33
2022-12-31T23:02:43.820Z,591.75
2022-12-31T23:04:47.239Z,605.47
2022-12-31T23:06:50.519Z,603.35
2022-12-31T23:09:12.818Z,611.47
2022-12-31T23:11:16.130Z,600.83
2022-12-31T23:13:36.921Z,603.97
2022-12-31T23:15:57.929Z,620.80
2022-12-31T23:18:19.100Z,598.03
2022-12-31T23:20:42.900Z,611.90
2022-12-31T23:23:03.571Z,598.10
2022-12-31T23:25:09.018Z,589.15
2022-12-31T23:27:13.197Z,622.15
2022-12-31T23:29:16.570Z,621.17
2022-12-31T23:31:20.000Z,626.60
2022-12-31T23:33:25.725Z,610.88
2022-12-31T23:35:29.684Z,616.50
2022-12-31T23:37:34.334Z,606.58
2022-12-31T23:39:37.833Z,603.33
2022-12-31T23:41:42.688Z,600.13
2022-12-31T23:43:46.548Z,604.95
2022-12-31T23:45:50.919Z,611.22
2022-12-31T23:47:54.449Z,608.47
2022-12-31T23:49:57.819Z,599.15
2022-12-31T23:52:01.302Z,601.55
2022-12-31T23:54:04.695Z,594.35
2022-12-31T23:56:14.914Z,578.45
2022-12-31T23:58:23.183Z,581.33
